Forside
METAR-TAF:

METAR-TAF

Lufthavne :

Honiara International Airport

Honiara, Guadalcanal, Salomonøerne

Breddekreds: 09-25S, længdekreds: 160-03E, højde: 8 m

Aktuelle vejr

Denne rapport blev lavet for 59 minutter siden, kl. 02:00 UTC
Vind 7 kt fra nordnordøst
Temperatur 31°C
Fugtighed 66%
Tryk 1007 hPa
Sigt 10 km eller mere
Nogle få skyer i en højde af 2000 ft
Spredte skyer i en højde af 35000 ft
tåge/dis

METAR: AGGH 160200Z 02007KT 9999 HZ FEW020 SCT350 31/24 Q1007

Tid: 13:59 (02:59 UTC)

Vejrudsigter

Denne rapport blev lavet for 3 timer og 49 minutter siden, kl. 23:10 UTC
Foreløbig gælder fra 16 på 00 UTC til 16 på 24 UTC
Vind 8 kt fra nordnordøst
Sigt 10 km eller mere
Spredte skyer i en højde af 1900 ft
Sandsynlighed 30%
mellem IN og TE UTC
Sigt: 1008 m
Spredte skyer i en højde af 1800 ft
Nogle få skyer i en højde af 1900 ft, Cumulonimbus.

TAF: AGGH 152310Z 1600/1624 02008KT 9999 SCT019 PROB30 INTER 1602/1606 9999 -TSSH SCT018 FEW019CB T 31 32 30 28 Q 1009 1007 1006 1008

Vejrobservationer og prognoser fra mere end 4000 lufthavne (METAR og TAF).

De gule og røde prikker repræsenterer de meteorologiske stationer.

Flyt musen over at se navnet på stationen.

Så klik over at se vejr observationer og prognoser.

At skifte det kort: Klik på de grønne knapper med et sort kors for at zoome ind; på den grønne knap med en bindestreg for at zoome ud; eller på de grønne pile for tilstødende kort.


METAR-TAF: